Date,TemperatureHighF,TemperatureAvgF,TemperatureLowF,DewpointHighF,DewpointAvgF,DewpointLowF,HumidityHigh,HumidityAvg,HumidityLow,PressureMaxIn,PressureMinIn,WindSpeedMaxMPH,WindSpeedAvgMPH,GustSpeedMaxMPH,PrecipitationSumIn
2013-1-1,30.6,24.0,15.1,22.0,17.5,7.1,85,76,69,30.19,30.09,10,3,16,0.00
2013-1-2,29.7,19.8,12.1,18.1,10.6,5.3,76,68,49,30.22,30.13,17,4,17,0.00
2013-1-3,31.1,26.3,18.4,24.6,19.3,10.9,82,75,68,30.26,30.11,13,3,13,0.00
2013-1-4,36.7,25.5,14.9,24.5,18.4,10.2,82,75,58,30.26,30.15,14,3,14,0.00
2013-1-5,36.9,30.3,21.4,32.1,25.4,16.8,90,82,68,30.26,29.98,16,5,16,0.00
2013-1-6,35.8,31.3,23.8,31.7,25.3,18.7,87,79,71,30.34,29.92,17,4,17,0.00
2013-1-7,38.9,28.7,19.3,26.2,21.8,15.3,87,76,56,30.36,30.13,22,8,22,0.00
2013-1-8,41.9,33.9,27.7,32.0,27.4,22.6,84,77,67,30.20,30.06,17,6,17,0.00
2013-1-9,51.8,41.5,27.0,35.5,27.8,17.9,81,61,32,30.50,30.04,22,5,22,0.00
2013-1-10,44.3,34.5,23.0,39.5,26.9,17.0,93,74,55,30.51,29.93,20,5,20,0.00
2013-1-11,52.7,49.9,41.6,50.9,47.2,39.7,95,91,87,29.93,29.69,18,8,18,0.00
2013-1-12,57.1,47.5,34.6,50.4,41.3,30.6,88,79,59,29.98,29.77,19,5,19,0.00
2013-1-13,35.6,28.3,15.8,33.5,25.1,10.5,93,88,78,30.25,29.85,14,3,14,0.00
2013-1-14,27.2,18.6,13.3,19.0,12.7,8.6,83,78,68,30.46,30.24,7,1,7,0.00
2013-1-15,35.5,22.2,11.5,27.1,16.3,7.6,87,78,66,30.42,30.11,8,1,8,0.00
2013-1-16,36.7,28.3,16.7,27.5,21.1,12.6,88,75,57,30.11,29.86,17,3,17,0.00
2013-1-17,34.6,29.1,19.3,29.8,18.1,10.4,84,64,48,30.40,30.05,14,3,14,0.00
2013-1-18,40.0,30.3,17.8,29.3,21.6,10.2,80,70,61,30.43,29.97,30,8,30,0.00
2013-1-19,49.5,41.8,33.5,36.9,32.0,13.2,74,68,44,29.98,29.74,28,7,28,0.00
2013-1-20,33.5,21.2,16.7,12.1,7.1,2.7,63,54,42,30.28,29.89,26,4,28,0.00
2013-1-21,17.6,14.8,12.6,7.2,4.2,1.5,75,63,53,30.09,30.02,16,5,16,0.00
2013-1-22,15.7,10.8,2.7,0.4,-2.3,-6.1,67,55,46,30.31,30.21,13,3,13,0.00
2013-1-23,22.1,17.3,11.0,14.1,6.5,-1.3,81,62,57,30.22,30.00,17,3,17,0.00
2013-1-24,24.7,18.7,14.8,18.5,11.7,6.5,88,75,60,30.51,30.16,15,3,15,0.00
2013-1-25,27.9,23.3,18.4,20.8,15.5,9.6,81,72,61,30.27,29.88,13,4,13,0.00
2013-1-26,31.3,24.1,18.4,21.0,15.9,11.3,77,71,61,30.29,29.13,12,2,12,0.00
2013-1-27,35.3,28.9,22.0,33.1,23.5,15.9,92,80,72,30.36,29.04,22,7,22,0.00
2013-1-28,50.0,44.4,35.5,48.3,42.7,33.1,96,94,88,29.98,29.85,16,4,16,0.00
2013-1-29,59.4,56.1,47.7,57.4,54.4,46.6,97,94,90,29.87,29.42,24,8,24,0.00
2013-1-30,53.1,37.6,23.9,51.5,34.9,17.5,97,90,76,29.62,29.20,21,4,21,0.00
2013-1-31,23.9,17.4,8.8,18.9,10.4,1.4,85,74,66,30.13,29.62,22,7,22,0.00
2013-2-1,18.7,11.8,3.6,12.2,4.4,-2.3,80,72,61,30.35,30.13,14,4,14,0.00
2013-2-2,27.4,20.3,12.6,23.0,16.1,7.3,88,84,78,30.20,29.99,12,3,12,0.00
2013-2-3,26.5,18.7,11.5,17.8,12.2,6.0,83,76,62,30.06,29.95,13,2,13,0.00
2013-2-4,31.7,25.8,21.8,25.3,21.3,17.1,88,83,75,30.05,29.84,8,1,8,0.00
2013-2-5,33.7,27.2,15.5,29.2,22.8,11.7,89,84,77,30.07,29.81,16,3,16,0.00
2013-2-6,40.9,32.9,23.0,28.1,24.6,17.6,81,72,56,30.25,30.07,14,4,14,0.00
2013-2-7,44.3,35.6,30.4,36.4,30.9,25.3,93,83,71,30.14,29.84,16,4,16,0.00
2013-2-8,34.0,30.3,29.0,31.7,27.2,25.0,94,88,81,30.37,29.89,19,6,19,0.00
2013-2-9,38.5,32.6,29.2,30.0,26.9,24.4,87,79,69,30.39,30.11,18,5,18,0.00
2013-2-10,49.5,40.0,31.7,46.5,36.2,25.8,95,86,75,30.11,29.55,26,9,26,0.00
2013-2-11,48.1,35.5,30.8,43.7,27.1,22.5,85,71,68,30.03,29.57,23,8,23,0.00
2013-2-12,33.5,28.6,21.6,24.7,21.7,17.1,84,75,70,30.11,29.94,16,3,16,0.00
2013-2-13,46.6,32.8,21.2,34.5,26.1,17.3,89,77,59,29.94,29.73,14,3,14,0.00
2013-2-14,44.3,37.1,31.9,35.8,29.2,23.0,85,73,58,29.98,29.68,18,5,18,0.00
2013-2-15,32.9,29.0,24.8,26.7,19.6,15.1,86,68,52,30.18,29.97,14,3,14,0.00
2013-2-16,24.8,20.1,16.6,15.7,9.1,5.2,74,62,49,30.17,30.11,12,3,12,0.00
2013-2-17,32.8,23.1,12.2,15.8,9.3,3.3,70,56,39,30.22,30.05,14,3,14,0.00
2013-2-18,54.4,40.6,25.9,44.2,31.9,14.3,92,72,57,30.05,29.45,27,12,27,0.00
2013-2-19,35.6,19.8,15.3,32.0,12.8,7.4,87,74,65,30.15,29.55,23,8,23,0.00
2013-2-20,25.9,19.6,13.1,18.8,11.0,5.0,75,69,59,30.34,30.15,11,3,11,0.00
2013-2-21,30.4,27.5,24.5,23.4,20.9,18.5,87,76,70,30.36,30.01,14,4,14,0.00
2013-2-22,35.3,29.3,23.4,32.3,25.4,20.3,90,85,78,30.02,29.83,14,4,14,0.00
2013-2-23,33.1,28.3,24.8,24.3,21.3,19.3,83,75,62,29.97,29.92,12,2,12,0.00
2013-2-24,41.9,29.6,17.6,28.2,21.1,13.2,85,71,52,30.15,29.97,7,1,7,0.00
2013-2-25,45.7,33.5,20.0,31.8,24.7,15.8,86,71,53,30.19,29.97,14,2,14,0.00
2013-2-26,36.5,34.1,32.8,31.8,28.8,23.9,93,82,60,29.98,29.50,17,4,17,0.00
2013-2-27,35.3,33.6,32.8,33.1,31.6,30.7,94,92,91,29.67,29.49,14,2,14,0.00
2013-2-28,35.5,33.2,30.6,33.8,30.8,27.2,95,91,82,30.03,29.67,14,5,14,0.00
2013-3-1,35.1,31.4,29.2,28.9,26.2,22.5,91,81,71,30.15,30.01,14,4,14,0.00
2013-3-2,30.6,28.5,26.3,25.6,22.3,19.3,85,77,70,30.16,30.12,14,4,14,0.00
2013-3-3,34.7,26.6,18.4,23.5,17.2,12.2,82,68,46,30.13,30.08,11,2,11,0.00
2013-3-4,37.8,28.8,16.7,28.1,20.7,11.5,85,72,55,30.14,29.99,9,2,9,0.00
2013-3-5,33.5,32.0,29.5,30.3,28.7,26.8,93,88,80,30.00,29.78,17,4,17,0.00
2013-3-6,35.3,32.4,30.2,30.5,28.6,26.6,91,86,82,30.28,29.94,14,4,15,0.00
2013-3-7,41.9,34.7,29.2,31.7,27.3,22.7,86,75,59,30.41,30.27,8,2,8,0.00
2013-3-8,46.4,33.0,19.3,31.5,23.9,15.7,88,71,53,30.49,30.32,11,2,11,0.00
2013-3-9,42.8,37.4,30.1,34.9,30.1,22.8,81,75,66,30.32,29.88,17,7,17,0.00
2013-3-10,55.8,46.9,39.6,49.7,42.1,34.5,90,83,72,29.89,29.64,17,5,17,0.00
2013-3-11,49.9,41.8,33.7,47.9,39.0,30.6,94,90,85,29.80,29.58,13,4,13,0.00
2013-3-12,40.0,33.9,29.9,30.7,27.4,22.0,89,77,60,30.00,29.80,19,4,19,0.00
2013-3-13,35.5,29.6,25.0,22.5,18.0,14.5,77,62,45,30.32,30.00,15,4,15,0.00
2013-3-14,43.6,32.7,22.9,29.3,22.7,14.9,86,68,45,30.32,30.09,11,2,11,0.00
2013-3-15,50.4,36.8,29.7,40.0,32.3,26.3,92,84,63,30.10,29.74,9,2,9,0.00
2013-3-16,36.4,33.7,31.0,34.2,30.0,23.9,94,86,76,30.11,29.68,12,3,12,0.00
2013-3-17,43.2,34.0,30.2,27.5,23.7,20.9,78,66,49,30.20,30.01,14,4,14,0.00
2013-3-18,36.2,31.8,24.8,32.8,27.0,15.4,90,83,68,30.01,29.61,24,5,24,0.00
2013-3-19,37.8,28.1,20.5,19.9,15.8,11.8,74,61,41,30.08,29.81,22,7,22,0.00
2013-3-20,30.2,24.3,19.4,16.0,10.2,6.8,69,55,43,30.08,30.02,18,5,18,0.00
2013-3-21,34.7,25.4,16.9,18.4,12.7,6.9,71,59,45,30.04,29.99,13,3,13,0.00
2013-3-22,40.7,28.8,16.9,21.6,17.1,11.5,82,63,41,30.07,30.00,9,1,9,0.00
2013-3-23,41.2,32.4,23.2,29.1,23.1,17.3,82,69,52,30.14,30.01,10,2,10,0.00
2013-3-24,38.5,33.8,30.4,29.0,25.6,23.0,89,72,58,30.03,29.63,20,5,20,0.00
2013-3-25,38.5,34.4,30.8,32.0,28.5,24.8,84,79,71,30.05,29.66,22,7,22,0.00
2013-3-26,43.9,36.7,31.9,31.2,28.7,26.7,91,73,55,30.24,30.05,12,3,12,0.00
2013-3-27,45.4,37.5,30.2,29.8,25.3,20.4,79,62,42,30.31,30.24,9,2,9,0.00
2013-3-28,51.5,38.0,25.2,29.1,21.4,16.4,79,54,34,30.35,30.28,11,2,11,0.00
2013-3-29,54.0,41.2,27.9,30.0,22.0,16.8,75,49,31,30.33,30.21,12,2,12,0.00
2013-3-30,60.7,45.1,26.3,38.5,30.8,19.3,79,59,42,30.25,29.87,18,4,18,0.00
2013-3-31,62.5,50.9,39.6,43.0,37.6,27.2,87,62,36,29.88,29.71,20,5,20,0.00
2013-4-1,40.5,35.6,29.0,28.0,20.7,14.5,64,55,44,30.17,29.87,12,4,12,0.00
2013-4-2,45.5,35.6,26.8,19.8,15.6,11.0,59,45,31,30.30,30.17,12,3,12,0.00
2013-4-3,45.7,33.1,20.9,25.9,18.1,11.1,78,55,33,30.46,30.30,11,2,11,0.00
2013-4-4,62.5,44.0,24.8,30.0,22.9,15.7,71,47,24,30.33,29.98,12,2,12,0.00
2013-4-5,47.3,40.6,35.6,33.9,29.0,23.1,86,64,44,30.23,29.99,18,5,18,0.00
2013-4-6,71.6,53.6,33.7,44.1,34.2,24.5,72,50,32,30.18,29.65,31,10,31,0.00
2013-4-7,61.9,49.8,38.9,48.4,39.8,32.1,80,69,53,29.98,29.66,21,4,21,0.00
2013-4-8,71.6,53.1,38.5,56.7,44.8,31.8,91,74,53,30.00,29.68,26,6,26,0.00
2013-4-9,74.0,49.0,40.9,62.0,43.5,38.0,93,82,53,30.01,29.82,16,3,16,0.00
2013-4-10,47.5,41.9,39.8,45.7,39.9,37.9,95,92,87,29.98,29.80,15,3,15,0.00
2013-4-11,52.6,47.1,40.0,50.9,45.3,38.3,95,94,91,29.86,29.58,14,4,14,0.00
2013-4-12,46.8,41.5,38.2,41.9,36.6,31.5,92,83,72,29.87,29.60,17,4,17,0.00
2013-4-13,48.1,40.8,36.2,34.7,31.8,28.8,86,71,54,30.00,29.87,17,3,17,0.00
2013-4-14,69.8,53.3,39.4,51.6,41.2,30.8,77,64,51,30.02,29.74,21,6,21,0.00
2013-4-15,67.3,58.0,45.4,57.6,50.5,42.9,92,77,61,29.99,29.74,23,8,23,0.00
2013-4-16,49.3,45.5,42.8,43.6,37.9,34.2,92,75,60,30.27,29.96,12,3,12,0.00
2013-4-17,54.4,47.7,41.4,51.1,42.4,34.3,95,82,72,30.28,29.81,19,4,19,0.00
2013-4-18,67.0,57.9,46.1,64.5,55.8,41.9,96,93,85,29.88,29.46,25,6,25,0.00
2013-4-19,46.1,39.1,34.6,41.4,32.5,30.0,86,77,70,29.92,29.54,23,6,23,0.00
2013-4-20,46.1,38.4,31.3,30.6,24.8,20.1,85,59,42,30.44,29.92,15,4,15,0.00
2013-4-21,56.7,42.9,27.7,32.2,26.5,20.3,74,54,33,30.54,30.35,17,5,17,0.00
2013-4-22,70.0,54.5,38.2,42.8,35.9,30.4,76,52,31,30.35,30.08,14,6,14,0.00
2013-4-23,65.9,51.3,38.3,52.0,42.5,35.7,92,73,55,30.08,29.90,14,5,14,0.01
2013-4-24,52.9,42.2,36.7,36.5,33.6,30.6,92,73,47,30.15,29.91,13,4,13,0.00
2013-4-25,52.7,44.8,35.3,37.6,32.7,27.2,77,63,46,30.35,30.09,16,4,16,0.00
2013-4-26,68.0,53.1,34.4,46.5,38.5,26.7,76,59,43,30.38,30.27,22,6,22,0.00
2013-4-27,73.8,58.7,40.3,51.0,43.1,35.6,87,59,33,30.32,30.02,17,4,17,0.00
2013-4-28,61.2,55.3,49.7,53.9,49.8,46.1,89,82,69,30.02,29.86,8,2,8,0.00
2013-4-29,76.0,62.3,45.9,57.5,52.0,43.2,93,71,50,29.95,29.84,20,5,20,0.00
2013-4-30,86.2,71.7,59.2,63.1,56.8,51.5,78,61,40,29.99,29.85,20,9,20,0.00
2013-5-1,88.4,74.7,60.3,61.8,57.2,53.1,80,57,34,30.16,29.99,19,4,19,0.00
2013-5-2,64.6,47.8,41.0,54.4,41.4,37.2,87,79,67,30.23,30.14,14,4,14,0.00
2013-5-3,50.0,45.0,40.5,46.8,41.8,37.3,93,88,81,30.14,29.96,13,3,13,0.01
2013-5-4,77.4,62.0,47.9,55.5,48.3,42.0,92,64,34,30.04,29.95,15,3,15,0.00
2013-5-5,70.4,56.1,45.0,51.2,45.2,39.9,85,68,47,30.04,29.97,13,2,13,0.00
2013-5-6,67.3,54.8,46.8,48.8,43.7,40.1,82,67,49,30.04,29.98,8,2,8,0.00
2013-5-7,68.6,56.9,45.9,49.2,44.8,40.0,82,65,47,30.06,29.99,8,1,8,0.00
2013-5-8,78.3,63.5,48.8,52.8,47.6,43.1,84,59,35,30.06,29.98,9,2,9,0.00
2013-5-9,80.8,64.3,50.8,60.3,53.6,43.4,89,70,43,29.99,29.83,16,3,16,0.01
2013-5-10,61.4,46.7,41.2,58.1,44.4,39.3,94,91,86,29.99,29.79,11,3,11,0.00
2013-5-11,61.6,48.7,41.6,55.6,42.7,31.6,93,80,56,30.03,29.85,15,3,15,0.00
2013-5-12,55.6,46.9,42.1,35.2,31.6,28.8,68,55,42,30.13,30.03,11,3,11,0.00
2013-5-13,64.4,52.8,34.7,40.8,34.2,27.7,81,52,30,30.20,30.05,9,2,9,0.00
2013-5-14,91.8,72.1,53.3,62.4,50.5,33.0,56,47,34,30.05,29.69,18,5,18,0.00
2013-5-15,79.9,73.8,59.8,59.9,53.4,47.7,65,50,37,29.86,29.68,13,3,13,0.01
2013-5-16,83.7,67.8,52.6,56.1,48.1,42.9,81,52,26,29.99,29.84,11,2,11,0.00
2013-5-17,76.5,64.6,55.6,58.4,51.7,45.9,77,63,51,30.06,29.97,9,2,9,0.00
2013-5-18,83.7,70.1,60.1,64.5,57.5,49.1,83,65,50,30.09,29.98,10,3,10,0.00
2013-5-19,91.8,76.9,62.3,69.5,63.2,56.5,84,64,45,29.99,29.80,14,3,14,0.00
2013-5-20,92.0,81.0,72.7,69.2,65.3,60.8,81,61,36,29.86,29.75,20,6,20,0.00
2013-5-21,84.6,73.2,65.0,69.8,64.4,60.4,86,74,59,29.83,29.70,27,5,27,0.01
2013-5-22,75.8,70.4,63.0,67.1,62.4,55.3,87,76,58,29.77,29.66,14,3,14,0.00
2013-5-23,63.0,47.6,43.2,55.3,43.2,36.2,92,85,74,30.26,29.77,20,4,20,0.01
2013-5-24,53.8,47.0,42.1,42.4,37.8,33.0,82,71,50,30.44,30.26,13,3,13,0.00
2013-5-25,57.1,48.4,39.4,48.4,41.6,33.7,87,78,69,30.41,30.30,5,1,5,0.00
2013-5-26,73.1,57.8,42.5,52.7,47.5,38.3,90,70,43,30.33,30.14,11,2,11,0.00
2013-5-27,63.7,59.7,54.9,59.5,55.3,51.4,91,85,76,30.15,29.87,15,4,15,0.00
2013-5-28,80.1,68.6,61.9,71.1,64.5,59.3,93,87,70,29.93,29.78,14,4,14,0.01
2013-5-29,84.6,73.1,64.6,74.2,66.3,62.0,93,80,65,29.98,29.83,11,3,11,0.00
2013-5-30,86.2,76.8,70.4,72.1,67.2,62.1,79,72,61,29.98,29.86,19,6,19,0.01
2013-5-31,78.1,71.6,66.4,69.4,65.7,62.1,90,82,74,29.94,29.74,18,5,18,0.00
2013-6-1,78.1,70.5,63.5,67.6,63.9,59.1,90,80,69,29.80,29.70,18,4,18,0.01
2013-6-2,63.7,54.6,45.7,60.1,49.6,41.3,90,83,75,30.05,29.74,13,3,13,0.00
2013-6-3,66.8,55.1,41.9,52.4,44.7,38.8,94,70,45,30.12,30.05,6,1,12,0.00
2013-6-4,74.5,59.8,45.9,54.2,48.0,41.4,88,66,45,30.17,30.09,10,2,10,0.00
2013-6-5,78.7,65.8,55.4,57.7,52.2,48.2,83,63,42,30.11,29.92,10,2,10,0.00
2013-6-6,67.3,60.5,53.6,54.7,50.3,44.7,82,70,52,29.93,29.88,10,2,10,0.00
2013-6-7,63.5,58.2,51.7,54.7,50.8,45.2,88,77,63,29.95,29.89,11,2,11,0.00
2013-6-8,71.3,61.7,49.5,56.7,49.1,41.8,91,65,42,30.02,29.92,11,1,11,0.00
2013-6-9,83.2,71.2,57.1,66.2,57.8,48.0,82,64,47,30.02,29.84,13,3,13,0.00
2013-6-10,75.2,67.3,61.0,68.0,62.5,58.1,91,85,69,29.89,29.76,8,1,8,0.01
2013-6-11,87.1,71.4,60.3,70.7,64.4,57.8,94,80,54,29.94,29.83,10,1,10,0.01
2013-6-12,85.0,74.2,67.3,76.6,69.5,64.5,93,86,73,29.93,29.61,16,2,16,0.01
2013-6-13,66.2,61.7,57.1,62.7,56.4,52.2,94,83,72,30.05,29.55,13,3,13,0.00
2013-6-14,68.8,61.2,55.6,59.9,55.2,51.8,90,81,70,30.14,30.02,8,2,8,0.00
2013-6-15,76.7,67.2,57.1,68.6,62.1,53.1,89,84,73,30.08,29.89,11,3,11,0.00
2013-6-16,86.4,75.6,67.7,72.2,67.0,63.5,87,75,59,29.94,29.88,8,1,8,0.00
2013-6-17,89.8,77.0,63.7,72.0,63.7,57.1,91,66,42,29.96,29.86,10,1,10,0.00
2013-6-18,65.5,61.3,57.6,59.7,56.3,53.7,93,84,75,30.05,29.92,10,2,10,0.00
2013-6-19,74.9,65.9,57.6,59.4,52.1,47.3,85,62,41,30.16,30.05,9,2,9,0.00
2013-6-20,88.2,73.5,56.2,69.9,61.1,49.0,83,66,50,30.18,30.09,8,2,8,0.00
2013-6-21,86.0,74.8,69.5,71.0,65.8,60.8,87,74,60,30.18,29.92,17,3,17,0.01
2013-6-22,88.0,76.5,71.3,77.1,69.4,64.7,88,79,69,30.10,29.97,12,2,12,0.00
2013-6-23,71.8,69.0,68.0,65.4,64.3,63.4,87,85,79,30.04,29.41,9,2,9,0.00
2013-6-24,73.1,70.1,68.9,65.2,64.6,64.1,86,83,76,30.01,29.91,7,2,8,0.01
2013-6-25,90.0,77.6,69.3,77.1,70.7,64.5,90,80,65,29.98,29.81,8,2,9,0.00
2013-6-26,84.1,74.0,66.4,75.5,68.1,64.0,93,82,71,29.91,29.73,13,2,13,0.01
2013-6-27,89.6,76.3,66.6,76.5,68.8,64.4,94,79,55,29.80,29.69,6,1,10,0.01
2013-6-28,82.1,73.1,67.5,71.7,64.6,61.5,89,76,55,29.71,29.61,8,1,8,0.00
2013-6-29,70.2,66.0,63.4,65.1,62.7,60.8,93,89,84,29.75,29.60,11,2,11,0.00
2013-6-30,68.4,66.8,65.3,60.4,58.9,57.2,84,76,70,29.97,29.92,14,2,14,0.00
2013-7-1,72.0,67.8,62.5,61.9,56.7,46.8,87,68,56,30.05,29.96,14,3,14,0.00
2013-7-2,67.1,63.3,61.6,60.7,58.1,53.6,92,83,62,30.07,30.02,10,3,10,0.00
2013-7-3,73.8,67.1,62.6,68.3,63.4,60.1,95,88,78,30.09,30.00,8,1,8,0.00
2013-7-4,81.0,71.5,60.8,68.9,64.1,58.4,94,78,65,30.13,30.07,11,2,11,0.00
2013-7-5,86.8,74.3,61.6,71.7,65.7,58.3,92,75,59,30.12,30.04,9,2,9,0.00
2013-7-6,81.0,75.1,69.1,71.6,68.2,64.4,86,79,72,30.10,30.00,6,2,6,0.00
2013-7-7,88.7,78.1,69.5,75.0,70.0,65.3,87,77,60,30.05,29.98,9,2,9,0.00
2013-7-8,85.0,77.5,70.4,75.9,71.1,66.4,90,81,72,30.10,29.96,10,2,11,0.00
2013-7-9,84.2,80.0,73.8,77.3,74.5,70.6,92,83,77,30.01,29.89,7,1,7,0.00
2013-7-10,84.2,76.0,64.6,78.7,69.1,59.3,90,79,65,30.02,29.86,12,2,12,0.00
2013-7-11,76.7,69.1,61.9,65.6,59.9,56.7,93,74,53,30.12,30.02,9,1,9,0.00
2013-7-12,79.0,69.4,56.9,66.8,61.3,53.0,92,76,58,30.16,30.10,9,1,9,0.00
2013-7-13,85.9,72.9,59.8,69.6,63.6,56.1,92,74,50,30.18,30.12,10,2,10,0.00
2013-7-14,86.6,77.7,68.2,73.4,69.0,64.2,90,75,64,30.22,30.16,9,2,9,0.00
2013-7-15,88.4,81.3,72.7,78.5,73.9,67.7,91,79,70,30.28,30.22,7,1,8,0.00
2013-7-16,94.5,83.5,73.6,78.3,74.1,70.2,91,74,57,30.33,30.26,9,1,10,0.00
2013-7-17,96.5,83.8,73.1,78.4,73.6,69.0,90,73,54,30.34,30.19,6,0,6,0.00
2013-7-18,97.6,85.6,74.5,79.7,74.4,70.7,91,71,50,30.20,29.99,9,1,9,0.00
2013-7-19,97.4,87.5,79.2,77.6,73.5,69.8,80,64,45,30.00,29.80,12,2,12,0.00
2013-7-20,85.9,80.0,75.2,73.4,68.3,59.9,80,68,43,29.96,29.81,8,2,8,0.00
2013-7-21,92.2,79.4,68.8,71.3,67.7,63.7,85,69,49,29.99,29.88,13,2,13,0.00
2013-7-22,91.4,78.7,70.7,73.3,68.1,64.7,82,71,54,29.90,29.77,10,2,10,0.00
2013-7-23,80.3,72.6,65.5,68.8,61.9,50.3,79,69,59,29.99,29.70,17,4,17,0.00
2013-7-24,71.3,65.1,58.0,54.6,51.4,48.4,76,62,50,30.07,29.96,14,3,14,0.00
2013-7-25,84.6,68.9,54.4,60.8,54.9,49.6,89,63,35,30.13,30.05,8,1,8,0.00
2013-7-26,77.6,69.4,64.8,63.8,59.4,55.0,83,71,60,30.07,29.90,11,3,11,0.00
2013-7-27,68.8,64.5,59.9,63.7,55.8,48.1,87,74,56,29.94,29.87,8,1,8,0.00
2013-7-28,70.6,61.8,54.7,54.4,50.4,47.8,84,67,51,30.04,29.89,6,1,6,0.00
2013-7-29,73.4,65.7,56.9,60.0,55.1,49.3,80,69,60,30.20,30.03,8,2,8,0.00
2013-7-30,74.3,67.4,55.6,63.6,58.7,50.8,88,74,65,30.21,30.09,9,2,9,0.00
2013-7-31,70.6,68.0,65.5,66.8,63.4,60.0,91,85,78,30.09,29.97,6,1,6,0.00
2013-8-1,79.6,69.6,60.5,66.8,59.2,54.4,94,72,43,30.00,29.96,10,1,10,0.00
2013-8-2,86.0,68.8,61.7,73.4,63.0,55.1,91,82,62,29.97,29.85,12,2,12,0.00
2013-8-3,75.1,69.7,61.7,67.9,62.1,53.3,94,78,52,30.12,29.96,10,2,10,0.00
2013-8-4,75.1,66.6,58.3,66.9,58.1,54.6,91,75,61,30.20,30.12,11,2,11,0.00
2013-8-5,74.3,66.9,58.9,65.6,59.2,53.4,85,77,68,30.15,29.92,10,3,10,0.00
2013-8-6,83.7,73.6,66.2,72.7,66.8,60.7,87,80,69,29.94,29.87,10,3,10,0.00
2013-8-7,90.0,77.1,69.7,77.9,70.7,64.5,91,81,64,29.95,29.82,10,2,10,0.00
2013-8-8,75.4,70.3,67.3,64.9,62.5,59.2,88,77,65,30.03,29.95,9,3,9,0.00
2013-8-9,84.4,73.3,61.0,67.7,62.5,56.7,90,70,53,30.04,29.98,6,1,6,0.00
2013-8-10,80.3,73.1,66.6,70.7,60.6,52.9,90,66,40,30.14,30.04,11,2,11,0.00
2013-8-11,82.8,71.9,59.6,64.4,60.3,54.5,86,68,50,30.15,30.05,8,1,8,0.00
2013-8-12,86.8,74.9,67.9,69.5,65.7,61.1,90,74,56,30.07,29.88,10,1,10,0.00
2013-8-13,69.3,65.4,62.5,66.5,56.3,50.0,91,73,56,30.15,29.93,12,4,12,0.00
2013-8-14,70.9,63.4,55.3,58.9,51.4,48.4,80,65,50,30.23,30.14,11,2,11,0.00
2013-8-15,74.0,63.9,51.7,62.1,54.5,47.4,89,72,56,30.19,30.12,5,0,5,0.00
2013-8-16,78.3,68.0,56.7,66.1,57.5,52.6,90,71,46,30.20,30.13,8,1,8,0.00
2013-8-17,81.0,68.9,56.5,64.2,57.9,52.0,89,69,45,30.25,30.18,9,1,9,0.00
2013-8-18,79.6,69.4,58.3,65.6,59.5,54.5,90,72,54,30.22,30.12,9,1,9,0.00
2013-8-19,84.6,71.3,58.7,66.9,60.5,54.5,90,71,50,30.14,30.05,7,1,7,0.00
2013-8-20,87.3,76.0,64.4,70.6,65.5,59.5,88,71,54,30.15,30.07,10,2,10,0.00
2013-8-21,90.4,79.0,67.3,72.5,67.4,62.5,86,69,52,30.12,30.00,12,2,12,0.00
2013-8-22,76.3,71.4,65.9,69.6,66.9,62.6,89,86,76,30.15,30.00,9,2,9,0.00
2013-8-23,78.7,71.7,65.3,71.3,62.9,56.5,94,75,48,30.19,30.10,10,2,10,0.00
2013-8-24,85.9,71.6,59.4,66.1,59.9,54.3,85,68,47,30.29,30.19,9,2,9,0.00
2013-8-25,90.5,76.7,63.4,69.9,63.4,56.0,79,64,50,30.28,30.17,11,3,11,0.00
2013-8-26,90.0,78.9,67.7,74.6,68.2,60.2,79,70,58,30.20,30.04,7,2,7,0.00
2013-8-27,95.4,84.3,76.1,77.9,72.4,68.9,81,69,50,30.04,29.87,11,2,11,0.00
2013-8-28,82.4,75.3,70.7,71.2,69.1,66.2,93,82,62,30.05,29.86,9,2,9,0.31
2013-8-29,82.4,74.5,69.5,72.7,69.3,65.4,94,84,67,30.10,29.99,8,1,8,0.00
2013-8-30,96.3,79.4,69.5,78.0,70.5,65.4,89,76,54,30.00,29.79,12,2,12,0.06
2013-8-31,74.9,71.7,70.0,71.8,68.0,66.5,93,88,84,29.90,29.80,8,1,8,0.28
2013-9-1,84.6,75.4,69.5,74.6,70.4,67.4,94,85,68,29.83,29.76,7,1,7,0.00
2013-9-2,75.6,71.0,65.5,68.2,64.0,57.5,88,79,68,29.99,29.80,12,3,12,0.00
2013-9-3,74.2,66.5,60.5,60.7,57.7,54.5,85,74,59,30.10,29.98,9,2,9,0.00
2013-9-4,85.9,70.0,56.3,64.7,59.3,52.5,90,71,46,30.15,30.06,3,1,3,0.00
2013-9-5,74.7,67.3,59.9,62.7,55.9,49.1,88,68,44,30.26,30.12,12,2,12,0.00
2013-9-6,84.8,70.0,57.1,67.5,57.9,48.8,79,66,53,30.24,30.05,8,3,8,0.00
2013-9-7,89.3,75.2,66.2,70.0,65.0,60.7,84,72,50,30.05,29.91,8,2,8,0.00
2013-9-8,81.0,73.9,68.2,70.1,66.9,63.1,90,79,68,30.03,29.95,10,2,10,0.00
2013-9-9,95.8,80.8,67.5,77.6,70.4,62.5,85,72,54,29.99,29.85,14,4,14,0.00
2013-9-10,97.9,86.1,76.1,72.2,68.8,64.9,76,58,39,30.04,29.91,10,2,10,0.00
2013-9-11,95.2,79.8,72.4,73.4,69.0,65.5,83,71,46,30.07,29.99,11,2,11,0.04
2013-9-12,84.6,73.3,64.6,68.5,62.9,54.6,85,71,45,30.07,29.93,15,3,15,0.00
2013-9-13,65.9,61.4,52.9,54.9,49.4,44.2,73,65,52,30.16,30.06,18,4,18,0.00
2013-9-14,74.2,59.9,47.5,51.7,45.9,41.7,83,62,38,30.20,30.06,9,2,9,0.00
2013-9-15,63.4,58.6,52.7,57.4,50.9,42.0,90,76,62,30.15,30.00,9,2,9,0.16
2013-9-16,63.2,59.3,53.8,55.4,51.8,47.4,91,77,63,30.35,30.15,11,3,11,0.00
2013-9-17,73.3,61.1,50.6,57.5,51.2,45.3,83,71,56,30.35,30.14,9,2,10,0.00
2013-9-18,82.8,68.1,59.6,66.9,58.4,49.8,92,72,56,30.14,29.95,12,3,12,2.99
2013-9-19,78.1,70.7,65.9,71.8,67.0,62.8,94,88,79,30.01,29.84,13,4,13,0.48
2013-9-20,75.4,70.6,61.9,71.4,64.3,53.3,89,81,70,29.87,29.79,10,2,10,0.00
2013-9-21,65.5,61.3,56.3,55.4,51.7,47.6,83,71,57,29.94,29.80,11,2,11,0.00
2013-9-22,64.6,57.8,50.9,52.3,48.8,44.1,81,72,57,30.07,29.94,9,1,9,0.00
2013-9-23,72.0,57.9,45.5,56.4,48.1,40.9,85,71,51,30.12,30.05,8,2,8,0.00
2013-9-24,72.0,60.3,51.1,55.6,50.2,44.6,79,70,50,30.09,29.94,8,3,10,0.00
2013-9-25,70.6,60.8,52.0,57.6,52.7,47.1,86,75,56,29.98,29.94,8,2,8,0.00
2013-9-26,75.1,62.0,50.9,60.1,54.1,47.4,90,76,52,30.10,29.97,9,1,9,0.00
2013-9-27,81.2,65.1,51.8,60.1,51.9,44.9,85,65,32,30.19,30.09,8,2,8,0.00
2013-9-28,83.2,70.1,56.7,63.1,56.7,49.7,79,64,47,30.12,29.94,16,4,16,0.00
2013-9-29,72.9,61.3,50.8,60.8,53.6,46.3,89,76,61,30.06,29.94,10,2,10,0.23
2013-9-30,76.0,61.3,47.9,59.7,51.7,44.2,90,73,47,30.02,29.90,9,2,9,0.00
2013-10-1,79.2,68.5,60.7,67.0,61.6,53.6,89,79,65,30.00,29.92,12,3,12,0.00
2013-10-2,75.1,68.8,60.8,64.6,58.8,51.6,91,71,53,30.10,29.99,8,1,8,0.00
2013-10-3,77.0,68.5,62.1,70.7,64.7,55.4,91,88,79,30.01,29.88,11,3,11,0.72
2013-10-4,81.2,70.6,65.2,73.8,66.6,61.8,91,87,76,30.01,29.92,7,2,7,0.00
2013-10-5,80.6,71.8,67.7,74.4,68.0,64.6,93,88,78,29.97,29.78,10,3,10,0.40
2013-10-6,67.9,58.5,48.6,65.7,52.3,42.1,93,81,63,29.81,29.70,12,2,12,0.55
2013-10-7,65.7,53.6,46.4,52.4,45.9,41.1,86,76,53,30.10,29.78,6,2,6,0.00
2013-10-8,76.1,60.5,47.5,60.0,50.7,42.9,86,71,47,30.21,30.10,8,2,8,0.00
2013-10-9,71.8,59.2,47.2,56.5,49.3,42.1,86,71,44,30.27,30.16,9,1,9,0.00
2013-10-10,76.3,60.1,48.6,60.3,51.3,44.5,86,74,50,30.19,30.07,8,1,8,0.00
2013-10-11,76.7,63.0,52.9,60.0,51.2,45.5,82,67,45,30.11,29.99,8,2,9,0.00
2013-10-12,76.9,63.5,55.4,62.3,54.9,48.1,85,74,58,30.18,29.99,15,3,15,0.08
2013-10-13,61.6,54.5,44.8,50.8,45.4,39.5,86,72,54,30.39,30.18,10,1,10,0.00
2013-10-14,66.1,53.8,44.8,51.2,45.3,39.5,87,74,52,30.40,30.16,9,1,9,0.00
2013-10-15,64.8,57.8,51.7,60.4,52.9,45.2,91,84,77,30.16,29.81,12,4,12,0.18
2013-10-16,56.5,51.8,46.8,51.4,46.1,42.4,86,81,77,29.95,29.88,6,1,6,0.00
2013-10-17,54.0,49.5,42.8,48.5,44.9,39.3,90,84,74,29.94,29.83,7,1,7,0.13
2013-10-18,57.8,46.7,41.9,49.9,41.4,38.5,89,82,71,29.98,29.86,8,1,8,0.00
2013-10-19,57.1,49.1,43.9,46.9,40.1,36.4,87,72,53,29.94,29.80,10,1,10,0.00
2013-10-20,63.7,53.6,41.6,49.0,43.3,36.5,83,69,56,29.91,29.75,14,3,14,0.00
2013-10-21,56.5,48.3,36.9,46.4,38.4,27.1,84,69,55,29.98,29.82,8,1,8,0.06
2013-10-22,49.1,38.2,31.5,35.9,31.1,25.4,87,76,57,30.00,29.90,5,1,5,0.12
2013-10-23,46.4,41.0,35.6,35.5,30.8,26.8,88,68,52,30.02,29.87,7,1,7,0.00
2013-10-24,44.5,39.7,37.4,31.1,28.6,24.1,74,65,49,30.28,30.01,7,1,7,0.00
2013-10-25,52.6,42.2,31.5,35.9,29.6,24.0,76,62,46,30.41,30.09,13,2,13,0.00
2013-10-26,57.2,47.7,41.9,40.6,33.6,29.6,63,58,52,30.10,29.86,14,3,14,0.00
2013-10-27,56.9,44.9,32.8,39.6,32.1,26.3,80,62,46,30.09,29.98,12,1,12,0.00
2013-10-28,60.1,45.7,32.8,46.4,37.3,27.0,82,73,56,30.35,30.08,9,2,9,0.00
2013-10-29,57.6,46.7,36.0,44.6,38.7,31.6,86,74,59,30.36,30.15,8,2,9,0.00
2013-10-30,63.2,53.7,43.4,61.2,49.2,38.3,94,85,75,30.15,29.80,10,3,10,1.39
2013-10-31,63.7,60.2,49.3,62.0,58.1,45.7,95,93,88,29.80,29.23,16,4,16,0.74
2013-11-1,51.5,47.6,45.4,45.7,42.7,40.3,91,83,73,29.75,29.39,18,2,18,0.09
2013-11-2,47.5,44.5,42.1,43.5,40.9,38.3,92,87,74,30.12,29.74,8,1,8,0.08
2013-11-3,53.1,45.5,39.2,47.8,40.3,36.8,94,82,68,30.31,30.12,12,2,12,0.10
2013-11-4,56.2,49.0,42.1,44.2,40.8,37.2,83,74,61,30.31,30.15,18,6,18,0.00
2013-11-5,55.8,53.2,50.9,49.9,46.7,44.0,86,79,74,30.29,30.00,21,4,21,0.00
2013-11-6,56.3,50.2,40.5,53.6,45.6,28.4,92,84,62,30.15,29.81,20,5,20,0.77
2013-11-7,48.6,39.8,32.8,35.4,30.4,26.3,82,69,54,30.25,30.15,10,2,10,0.00
2013-11-8,50.0,41.5,30.8,37.5,32.7,27.1,87,72,59,30.33,30.02,15,3,15,0.00
2013-11-9,60.8,51.5,44.6,44.4,38.5,27.0,72,61,49,30.10,29.89,23,5,23,0.00
2013-11-10,51.1,42.8,37.6,35.6,30.6,26.4,71,62,51,30.33,30.10,12,2,14,0.00
2013-11-11,47.0,40.2,32.8,39.5,32.3,23.6,91,74,64,30.43,30.10,15,4,15,0.22
2013-11-12,34.9,31.9,25.0,26.6,21.8,16.7,76,66,54,30.64,30.43,12,3,12,0.00
2013-11-13,41.0,31.4,20.5,25.7,20.5,14.4,79,65,46,30.59,30.20,18,5,18,0.00
2013-11-14,51.7,41.4,31.5,31.2,26.2,21.4,68,55,42,30.20,29.97,20,7,20,0.00
2013-11-15,50.0,44.3,38.5,36.5,31.9,27.0,74,62,51,30.02,29.97,14,5,14,0.00
2013-11-16,60.3,51.7,42.1,57.2,47.4,34.2,91,85,74,29.98,29.63,24,10,24,0.07
2013-11-17,66.2,57.6,43.6,62.4,52.6,36.3,93,84,72,29.74,29.22,35,11,35,0.24
2013-11-18,46.8,41.0,35.8,36.5,31.3,26.9,81,69,56,30.24,29.74,21,6,21,0.00
2013-11-19,45.4,36.9,31.3,33.7,28.7,23.9,81,72,63,30.36,30.23,11,2,11,0.00
2013-11-20,46.6,38.9,31.0,36.0,30.6,25.0,84,72,58,30.30,30.10,20,6,20,0.17
2013-11-21,52.0,46.2,40.5,44.6,41.7,35.8,92,84,74,30.19,30.12,16,4,16,0.23
2013-11-22,44.8,37.9,29.0,42.4,33.3,24.3,91,83,75,30.45,30.17,14,4,14,0.02
2013-11-23,28.8,25.0,20.9,24.3,15.9,10.4,84,68,59,30.64,30.39,15,5,15,0.00
2013-11-24,30.2,22.9,16.0,13.3,10.2,6.0,69,59,42,30.69,30.39,10,4,10,0.00
2013-11-25,32.9,28.3,20.5,26.3,19.5,10.5,85,70,56,30.39,30.09,20,6,20,0.00
2013-11-26,37.3,30.9,24.5,30.5,24.3,16.8,84,76,62,30.10,29.99,15,4,15,0.00
2013-11-27,29.7,24.8,21.1,19.5,16.8,13.2,85,72,58,30.25,30.08,15,5,15,0.00
2013-11-28,37.3,29.3,23.4,21.1,17.6,14.1,68,62,50,30.47,30.18,18,4,18,0.00
2013-11-29,41.0,31.7,24.8,28.4,21.1,16.4,73,65,53,30.62,30.41,12,3,12,0.00
2013-11-30,50.2,39.2,29.7,33.7,27.9,22.3,77,64,50,30.42,30.07,19,6,19,0.00
2013-12-1,43.9,35.2,27.7,38.4,30.0,21.9,87,81,72,30.10,29.97,7,1,7,0.00
2013-12-2,43.4,36.6,28.8,33.4,30.0,24.9,89,78,59,29.97,29.77,11,3,11,0.07
2013-12-3,50.4,44.1,36.2,47.3,41.2,33.0,91,90,88,29.77,29.69,15,7,15,0.00
2013-12-4,57.2,51.4,45.9,55.1,49.0,40.1,95,92,77,29.77,29.55,19,6,19,0.01
2013-12-5,46.6,31.0,25.2,40.3,24.0,16.7,83,75,66,30.24,29.69,15,4,19,0.00
2013-12-6,25.4,23.1,19.3,17.9,15.5,11.4,77,72,68,30.49,30.21,10,3,10,0.00
2013-12-7,21.2,17.3,13.0,13.5,9.8,6.6,78,72,62,30.66,30.49,9,2,9,0.00
2013-12-8,26.5,22.1,12.8,23.4,16.7,7.5,88,80,71,30.57,29.94,10,2,10,0.00
2013-12-9,26.8,20.6,6.8,23.6,14.2,-0.9,88,76,66,30.23,29.93,19,4,19,0.00
2013-12-10,26.1,14.5,1.8,15.3,5.9,-4.5,77,69,61,30.29,30.04,22,5,22,0.00
2013-12-11,24.3,16.7,4.0,17.5,8.9,-4.3,82,71,61,30.55,30.26,12,3,12,0.00
2013-12-12,23.9,11.2,-2.3,12.6,2.9,-9.0,78,69,59,30.54,30.22,15,3,15,0.00
2013-12-13,33.5,23.8,13.7,24.9,16.8,7.9,88,74,62,30.22,30.10,10,2,10,0.01
2013-12-14,30.4,28.3,26.8,26.0,24.9,23.1,91,87,83,30.11,29.86,10,3,10,0.00
2013-12-15,27.5,17.1,11.3,23.1,11.1,4.9,85,77,71,30.11,29.93,11,4,13,0.00
2013-12-16,25.7,18.8,10.4,18.3,12.8,5.4,86,77,66,30.15,30.01,10,2,10,0.00
2013-12-17,34.2,25.1,18.2,27.9,20.1,14.0,90,81,72,30.08,29.94,16,4,16,0.02
2013-12-18,36.5,26.7,14.9,30.3,18.6,9.5,81,71,61,30.18,29.85,21,6,21,0.01
2013-12-19,44.6,38.6,34.2,38.2,33.7,30.0,90,83,77,29.95,29.79,13,3,13,0.08
2013-12-20,40.7,36.8,34.0,38.8,35.0,32.2,94,93,90,29.80,29.72,6,1,6,0.26
2013-12-21,36.0,34.3,33.3,34.7,32.7,31.4,95,94,93,29.84,29.53,12,2,12,0.42
2013-12-22,34.6,32.6,27.4,32.9,30.6,23.9,95,93,87,30.10,29.56,14,3,14,0.14
2013-12-23,27.4,19.0,2.7,24.1,13.9,-2.8,88,80,69,30.43,30.10,14,4,15,0.00
2013-12-24,20.5,11.7,1.8,13.5,5.7,-3.5,81,77,70,30.54,30.38,15,4,15,0.00
2013-12-25,27.9,24.5,18.7,24.9,19.9,13.4,89,83,74,30.37,30.09,19,6,19,0.00
2013-12-26,34.7,27.2,16.2,29.2,21.8,11.6,87,80,75,30.30,30.09,15,4,15,0.00
2013-12-27,43.6,36.5,24.3,33.9,30.1,20.7,89,78,66,30.30,30.10,19,4,19,0.02
2013-12-28,50.8,41.7,34.9,38.4,33.7,29.9,83,73,60,30.11,29.86,20,6,20,0.00
2013-12-29,38.2,30.8,18.7,32.6,25.6,12.0,90,81,75,30.15,29.77,14,5,14,0.00
2013-12-30,21.6,16.1,10.1,13.2,9.1,4.5,79,74,67,30.31,30.15,6,2,8,0.00
2013-12-31,19.8,14.0,6.5,15.7,7.9,1.6,85,77,65,30.35,30.16,9,2,9,0.01
2014-1-1,22.0,18.9,15.3,17.0,14.2,10.9,85,82,76,30.27,30.14,9,3,9,0.00
2014-1-2,20.7,17.7,12.8,15.8,12.6,8.0,87,81,67,30.37,30.08,23,6,23,0.00